Terminal Aerodrome Forecast
Issued by NWS

Home | Current Version | Previous Version | Text Only | Print | Product List | Glossary On
Versions: 1 2 3 4 5 6 7 8 9 10 11 12 13 14 15 16 17 18 19 20 21 22 23 24 25 26 27 28 29 30 31 32 33 34 35
000
FTUS44 KHGX 280530
TAFSGR
TAF
KSGR 280530Z 2806/0106 05009KT P6SM BKN040
     FM280800 06010KT P6SM SCT015 BKN035 OVC070
     FM281300 06013KT P6SM SCT015 BKN035 OVC060
     FM281700 08013KT P6SM BKN015 BKN035
     FM010000 10011KT P6SM BKN035 BKN070
     FM010500 10008KT 5SM BR VCSH BKN008 BKN015 OVC025=

USA.gov is the U.S. government's official web portal to all federal, state and local government web resources and services.